Weimar, Texas
Current Conditions -  °F | °C
As of 6:15 PM on Friday 21 Nov 2014 (Local Time) from K66R Reporting Station
Overcast Overcast  
Wind Chill: 67°   Ceiling: 3200
Heat Index: 67°   Visibility: 10mi
Dew Point: 66°   Wind: 7mph
Humidity: 94%   Direction: 140°SE
Pressure: 30.07"   Gusts: NA
Location:  29.7°N, 96.78°W
Report Text: K66R 220015Z AUTO 14006KT 10SM SCT024 BKN032 OVC038 20/19 A3007 RMK AO2 T01970187
Loading
Personal Weather Stations






























Interactive Weather Map New forecast layout! Learn more

10-Day Weather Forecast

Advertisements
Track Severe Weather on mobile